Time;durP1;ratioP1;P1;durP2;ratioP2;P2;SDS_P1;SDS_P2;PMS_P1;PMS_P2;Temp;Humidity;BMP_temperature;BMP_pressure;BME280_temperature;BME280_humidity;BME280_pressure;Samples;Min_cycle;Max_cycle;Signal;HPM_P1;HPM_P2
2022/01/02 00:00:19;;;;;;;;;;;5.80;99.30;;;;;;5003714;28;19925;-68
2022/01/02 00:03:13;;;;;;;;;;;5.70;99.30;;;;;;5002581;28;20112;-68
2022/01/02 00:05:39;;;;;;;;;;;5.70;99.20;;;;;;5000588;28;19917;-68
2022/01/02 00:08:08;;;;;;;;;;;5.80;99.10;;;;;;5001262;28;19920;-68
2022/01/02 00:10:45;;;;;;;;;;;5.70;99.10;;;;;;5002430;28;19905;-68
2022/01/02 00:13:23;;;;;;;;;;;5.80;99.20;;;;;;5003481;28;19912;-68
2022/01/02 00:15:51;;;;;;;;;;;5.70;99.10;;;;;;5002257;28;19906;-68
2022/01/02 00:18:17;;;;;;;;;;;5.70;99.40;;;;;;5002181;28;19910;-68
2022/01/02 00:20:48;;;;;;;;;;;5.60;99.70;;;;;;5002338;28;20017;-68
2022/01/02 00:23:40;;;;;;;;;;;5.60;99.90;;;;;;5001944;28;19906;-68
2022/01/02 00:26:05;;;;;;;;;;;5.50;99.90;;;;;;5002933;28;19976;-68
2022/01/02 00:28:34;;;;;;;;;;;5.50;99.90;;;;;;4986366;28;20161;-68
2022/01/02 00:30:59;;;;;;;;;;;5.60;99.90;;;;;;5002712;28;19909;-68
2022/01/02 00:33:25;;;;;;;;;;;5.60;99.90;;;;;;5002226;28;19928;-68
2022/01/02 00:35:51;;;;;;;;;;;5.60;99.90;;;;;;5003007;28;19906;-67
2022/01/02 00:38:20;;;;;;;;;;;5.60;99.70;;;;;;5000934;28;19985;-68
2022/01/02 00:40:47;;;;;;;;;;;5.60;99.30;;;;;;5002942;28;19913;-68
2022/01/02 00:43:13;;;;;;;;;;;5.50;99.00;;;;;;5001989;28;19912;-68
2022/01/02 00:45:46;;;;;;;;;;;5.40;99.10;;;;;;5001789;28;19916;-68
2022/01/02 00:48:21;;;;;;;;;;;5.50;99.40;;;;;;4986083;28;20300;-68
2022/01/02 00:50:51;;;;;;;;;;;5.60;99.50;;;;;;5006015;28;19905;-68
2022/01/02 00:53:18;;;;;;;;;;;5.60;99.50;;;;;;5005712;28;19906;-67
2022/01/02 00:55:45;;;;;;;;;;;5.60;99.50;;;;;;5006577;28;19905;-67
2022/01/02 00:58:16;;;;;;;;;;;5.60;99.40;;;;;;5005559;28;20205;-67
2022/01/02 01:00:49;;;;;;;;;;;5.60;99.20;;;;;;5007131;28;19952;-68
2022/01/02 01:03:20;;;;;;;;;;;5.50;99.40;;;;;;5006936;28;19906;-68
2022/01/02 01:05:46;;;;;;;;;;;5.50;99.20;;;;;;5005506;28;19925;-67
2022/01/02 01:08:12;;;;;;;;;;;5.50;99.30;;;;;;4988467;28;19906;-67
2022/01/02 01:10:39;;;;;;;;;;;5.50;99.40;;;;;;5006755;28;19913;-67
2022/01/02 01:13:06;;;;;;;;;;;5.40;99.70;;;;;;5005388;28;19906;-68
2022/01/02 01:15:35;;;;;;;;;;;5.40;99.80;;;;;;5005390;28;19937;-68
2022/01/02 01:18:02;;;;;;;;;;;5.40;99.90;;;;;;5006514;28;19960;-68
2022/01/02 01:20:30;;;;;;;;;;;5.40;99.90;;;;;;5005512;28;19944;-68
2022/01/02 01:22:56;;;;;;;;;;;5.50;99.90;;;;;;5005095;28;20016;-68
2022/01/02 01:25:22;;;;;;;;;;;5.40;99.90;;;;;;5006132;28;20099;-68
2022/01/02 01:27:48;;;;;;;;;;;5.30;99.90;;;;;;5006317;28;19905;-68
2022/01/02 01:30:15;;;;;;;;;;;5.30;99.90;;;;;;5006172;28;20136;-68
2022/01/02 01:32:41;;;;;;;;;;;5.40;99.90;;;;;;5006348;28;19910;-68
2022/01/02 01:35:07;;;;;;;;;;;5.30;99.90;;;;;;5006031;28;20196;-67
2022/01/02 01:37:33;;;;;;;;;;;5.30;99.90;;;;;;5004481;28;19910;-68
2022/01/02 01:39:58;;;;;;;;;;;5.30;99.90;;;;;;5005624;28;19905;-68
2022/01/02 01:42:37;;;;;;;;;;;5.40;99.80;;;;;;5005048;28;19953;-68
2022/01/02 01:45:28;;;;;;;;;;;5.30;99.70;;;;;;5005881;28;19912;-68
2022/01/02 01:47:51;;;;;;;;;;;5.20;99.90;;;;;;5005657;28;20267;-68
2022/01/02 01:50:18;;;;;;;;;;;5.20;99.90;;;;;;5004831;28;20156;-68
2022/01/02 01:52:43;;;;;;;;;;;5.20;99.80;;;;;;5005776;28;19984;-68
2022/01/02 01:55:09;;;;;;;;;;;5.20;99.90;;;;;;5005599;28;19913;-68
2022/01/02 01:57:35;;;;;;;;;;;5.20;99.70;;;;;;5004874;28;19912;-68
2022/01/02 02:00:05;;;;;;;;;;;5.10;99.80;;;;;;5005511;28;19952;-67
2022/01/02 02:02:31;;;;;;;;;;;5.10;99.90;;;;;;5004630;28;19906;-67
2022/01/02 02:04:57;;;;;;;;;;;5.10;99.90;;;;;;5004196;28;20251;-67
2022/01/02 02:07:28;;;;;;;;;;;5.10;99.90;;;;;;5004187;28;20201;-67
2022/01/02 02:10:11;;;;;;;;;;;5.10;99.90;;;;;;5005655;28;19905;-67
2022/01/02 02:12:38;;;;;;;;;;;5.10;99.90;;;;;;5004767;28;19906;-67
2022/01/02 02:15:05;;;;;;;;;;;5.10;99.90;;;;;;5005229;28;19906;-67
2022/01/02 02:17:30;;;;;;;;;;;5.10;99.90;;;;;;5004500;28;19965;-67
2022/01/02 02:20:12;;;;;;;;;;;5.00;99.90;;;;;;5004375;28;19961;-67
2022/01/02 02:22:40;;;;;;;;;;;5.10;99.90;;;;;;5005296;28;19977;-67
2022/01/02 02:25:07;;;;;;;;;;;5.10;99.90;;;;;;5005182;28;20108;-67
2022/01/02 02:27:32;;;;;;;;;;;5.20;99.90;;;;;;5004123;28;20020;-67
2022/01/02 02:29:58;;;;;;;;;;;5.20;99.90;;;;;;5005346;28;19906;-67
2022/01/02 02:32:25;;;;;;;;;;;5.30;99.90;;;;;;5005279;28;20121;-67
2022/01/02 02:34:50;;;;;;;;;;;5.40;99.90;;;;;;5005081;28;19905;-67
2022/01/02 02:37:16;;;;;;;;;;;5.30;99.90;;;;;;5003088;28;19997;-67
2022/01/02 02:39:42;;;;;;;;;;;5.40;99.90;;;;;;5004984;28;19905;-67
2022/01/02 02:42:20;;;;;;;;;;;5.50;99.90;;;;;;5005108;28;19951;-67
2022/01/02 02:44:47;;;;;;;;;;;5.40;99.90;;;;;;5005220;28;19905;-67
2022/01/02 02:49:56;;;;;;;;;;;5.40;99.70;;;;;;5004176;28;19952;-67
2022/01/02 02:52:41;;;;;;;;;;;5.30;99.90;;;;;;5004531;28;20136;-67
2022/01/02 02:55:07;;;;;;;;;;;5.20;99.90;;;;;;5004032;28;19911;-67
2022/01/02 02:57:34;;;;;;;;;;;5.20;99.90;;;;;;5004611;28;19943;-67
2022/01/02 02:59:59;;;;;;;;;;;5.20;99.90;;;;;;5004642;28;20062;-67
2022/01/02 03:02:25;;;;;;;;;;;5.10;99.90;;;;;;5004783;28;19913;-67
2022/01/02 03:04:51;;;;;;;;;;;5.10;99.90;;;;;;5004475;28;20090;-67
2022/01/02 03:07:16;;;;;;;;;;;5.10;99.90;;;;;;5004455;28;19918;-67
2022/01/02 03:09:47;;;;;;;;;;;5.10;99.90;;;;;;5004493;28;19913;-67
2022/01/02 03:12:13;;;;;;;;;;;5.10;99.90;;;;;;5003105;28;19914;-67
2022/01/02 03:14:39;;;;;;;;;;;5.00;99.90;;;;;;5004491;28;20001;-67
2022/01/02 03:17:05;;;;;;;;;;;5.10;99.90;;;;;;5004309;28;19906;-67
2022/01/02 03:19:32;;;;;;;;;;;5.10;99.90;;;;;;5003024;28;19937;-67
2022/01/02 03:21:57;;;;;;;;;;;5.20;99.90;;;;;;5004210;28;20165;-67
2022/01/02 03:24:23;;;;;;;;;;;5.20;99.90;;;;;;5004024;28;19905;-67
2022/01/02 03:26:49;;;;;;;;;;;5.20;99.90;;;;;;5003940;28;19909;-67
2022/01/02 03:29:14;;;;;;;;;;;5.10;99.90;;;;;;5003921;28;19906;-67
2022/01/02 03:31:40;;;;;;;;;;;5.10;99.90;;;;;;5004207;28;19906;-67
2022/01/02 03:34:06;;;;;;;;;;;5.00;99.90;;;;;;5002851;28;19905;-68
2022/01/02 03:36:31;;;;;;;;;;;5.00;99.90;;;;;;4985845;28;20197;-68
2022/01/02 03:38:57;;;;;;;;;;;5.00;99.90;;;;;;5001054;28;19976;-68
2022/01/02 03:41:23;;;;;;;;;;;5.00;99.90;;;;;;5001792;28;20169;-67
2022/01/02 03:43:49;;;;;;;;;;;4.90;99.90;;;;;;5003898;28;20057;-67
2022/01/02 03:46:14;;;;;;;;;;;4.80;99.90;;;;;;5002051;28;19994;-68
2022/01/02 03:48:40;;;;;;;;;;;4.70;99.90;;;;;;5002686;28;19912;-68
2022/01/02 03:51:06;;;;;;;;;;;4.70;99.90;;;;;;5004002;28;20096;-68
2022/01/02 03:53:31;;;;;;;;;;;4.60;99.90;;;;;;5002711;28;19964;-68
2022/01/02 03:55:57;;;;;;;;;;;4.60;99.90;;;;;;5003327;28;19952;-68
2022/01/02 03:58:23;;;;;;;;;;;4.70;99.90;;;;;;5003645;28;19925;-68
2022/01/02 04:00:48;;;;;;;;;;;4.70;99.90;;;;;;5003654;28;20113;-68
2022/01/02 04:03:15;;;;;;;;;;;4.60;99.90;;;;;;5003536;28;20008;-67
2022/01/02 04:05:42;;;;;;;;;;;4.50;99.90;;;;;;5002195;28;19910;-67
2022/01/02 04:08:08;;;;;;;;;;;4.50;99.90;;;;;;5002970;28;19928;-67
2022/01/02 04:10:34;;;;;;;;;;;4.40;99.90;;;;;;5002260;28;19985;-67
2022/01/02 04:12:59;;;;;;;;;;;4.30;99.90;;;;;;5000906;28;19906;-67
2022/01/02 04:15:25;;;;;;;;;;;4.30;99.90;;;;;;5002593;28;20104;-67
2022/01/02 04:17:51;;;;;;;;;;;4.20;99.90;;;;;;5002822;28;19909;-67
2022/01/02 04:20:16;;;;;;;;;;;4.30;99.90;;;;;;5003228;28;19977;-68
2022/01/02 04:22:44;;;;;;;;;;;4.20;99.90;;;;;;5003172;28;19964;-67
2022/01/02 04:25:10;;;;;;;;;;;4.30;99.90;;;;;;5002250;28;19952;-68
2022/01/02 04:27:36;;;;;;;;;;;4.20;99.90;;;;;;5001991;28;19967;-67
2022/01/02 04:30:02;;;;;;;;;;;4.20;99.90;;;;;;5002271;28;19937;-67
2022/01/02 04:32:28;;;;;;;;;;;4.20;99.90;;;;;;5003208;28;20144;-67
2022/01/02 04:34:53;;;;;;;;;;;4.10;99.90;;;;;;5002378;28;19914;-67
2022/01/02 04:37:19;;;;;;;;;;;4.10;99.90;;;;;;4985885;28;20200;-67
2022/01/02 04:39:45;;;;;;;;;;;4.00;99.90;;;;;;5001311;28;19910;-67
2022/01/02 04:42:11;;;;;;;;;;;4.00;99.90;;;;;;5002889;28;19909;-67
2022/01/02 04:44:36;;;;;;;;;;;4.00;99.90;;;;;;5002579;28;20258;-67
2022/01/02 04:47:02;;;;;;;;;;;3.90;99.90;;;;;;5001069;28;19956;-67
2022/01/02 04:49:28;;;;;;;;;;;3.90;99.90;;;;;;5003239;28;19905;-67
2022/01/02 04:51:54;;;;;;;;;;;3.90;99.90;;;;;;5001881;28;19909;-67
2022/01/02 04:54:20;;;;;;;;;;;3.90;99.90;;;;;;5002380;28;19913;-67
2022/01/02 04:56:46;;;;;;;;;;;3.90;99.90;;;;;;5001649;28;19909;-67
2022/01/02 04:59:11;;;;;;;;;;;3.90;99.90;;;;;;5002005;28;19948;-67
2022/01/02 05:01:37;;;;;;;;;;;3.90;99.90;;;;;;5001915;28;19905;-67
2022/01/02 05:04:03;;;;;;;;;;;3.90;99.90;;;;;;5003071;28;19905;-67
2022/01/02 05:06:29;;;;;;;;;;;4.00;99.90;;;;;;5001024;28;20261;-67
2022/01/02 05:08:54;;;;;;;;;;;4.00;99.90;;;;;;5002729;28;19905;-67
2022/01/02 05:11:20;;;;;;;;;;;3.90;99.90;;;;;;5002708;28;20012;-67
2022/01/02 05:13:45;;;;;;;;;;;3.90;99.90;;;;;;4985659;28;20197;-67
2022/01/02 05:16:11;;;;;;;;;;;3.80;99.90;;;;;;5001369;28;19912;-67
2022/01/02 05:18:37;;;;;;;;;;;3.80;99.90;;;;;;5001688;28;19913;-67
2022/01/02 05:21:03;;;;;;;;;;;3.80;99.90;;;;;;5002957;28;20028;-67
2022/01/02 05:23:29;;;;;;;;;;;3.90;99.90;;;;;;5001921;28;19906;-67
2022/01/02 05:25:55;;;;;;;;;;;3.90;99.90;;;;;;5002369;28;19914;-67
2022/01/02 05:28:22;;;;;;;;;;;3.90;99.90;;;;;;5002893;28;19928;-67
2022/01/02 05:30:47;;;;;;;;;;;4.00;99.90;;;;;;5002503;28;20215;-67
2022/01/02 05:33:13;;;;;;;;;;;4.10;99.90;;;;;;5002846;28;19909;-67
2022/01/02 05:35:39;;;;;;;;;;;4.20;99.90;;;;;;5004694;28;19906;-67
2022/01/02 05:38:05;;;;;;;;;;;4.20;99.90;;;;;;5006077;28;19981;-67
2022/01/02 05:40:32;;;;;;;;;;;4.30;99.90;;;;;;5004649;28;19914;-68
2022/01/02 05:43:06;;;;;;;;;;;4.30;99.90;;;;;;5005784;28;19909;-68
2022/01/02 05:45:32;;;;;;;;;;;4.30;99.90;;;;;;5005721;28;19952;-67
2022/01/02 05:47:58;;;;;;;;;;;4.30;99.90;;;;;;5006029;28;19905;-67
2022/01/02 05:50:24;;;;;;;;;;;4.20;99.90;;;;;;5005511;28;19906;-67
2022/01/02 05:52:50;;;;;;;;;;;4.20;99.90;;;;;;5005977;28;19913;-67
2022/01/02 05:55:15;;;;;;;;;;;4.20;99.90;;;;;;5005632;28;19912;-68
2022/01/02 05:57:41;;;;;;;;;;;4.20;99.90;;;;;;5005636;28;20143;-68
2022/01/02 06:00:07;;;;;;;;;;;4.30;99.90;;;;;;5005570;28;19914;-68
2022/01/02 06:02:34;;;;;;;;;;;4.20;99.90;;;;;;5005244;28;19925;-67
2022/01/02 06:05:02;;;;;;;;;;;4.10;99.90;;;;;;5005447;28;19972;-67
2022/01/02 06:07:28;;;;;;;;;;;4.10;99.90;;;;;;5004984;28;19925;-67
2022/01/02 06:09:54;;;;;;;;;;;4.10;99.90;;;;;;4988272;28;19981;-67
2022/01/02 06:12:19;;;;;;;;;;;4.10;99.90;;;;;;5005385;28;19913;-67
2022/01/02 06:14:45;;;;;;;;;;;4.20;99.90;;;;;;5005254;28;20197;-67
2022/01/02 06:17:11;;;;;;;;;;;4.30;99.90;;;;;;5004408;28;19905;-67
2022/01/02 06:19:36;;;;;;;;;;;4.30;99.90;;;;;;5005418;28;19905;-67
2022/01/02 06:22:02;;;;;;;;;;;4.30;99.90;;;;;;5005487;28;19921;-67
2022/01/02 06:24:28;;;;;;;;;;;4.30;99.90;;;;;;5005176;28;20319;-67
2022/01/02 06:26:53;;;;;;;;;;;4.40;99.90;;;;;;5005324;28;19937;-68
2022/01/02 06:29:19;;;;;;;;;;;4.40;99.90;;;;;;5005301;28;19936;-67
2022/01/02 06:31:45;;;;;;;;;;;4.40;99.90;;;;;;5004976;28;20097;-67
2022/01/02 06:34:10;;;;;;;;;;;4.50;99.90;;;;;;5004988;28;19912;-68
2022/01/02 06:36:36;;;;;;;;;;;4.60;99.90;;;;;;5005005;28;19929;-69
2022/01/02 06:39:02;;;;;;;;;;;4.70;99.90;;;;;;5005025;28;20172;-68
2022/01/02 06:41:28;;;;;;;;;;;4.80;99.90;;;;;;5005067;28;19945;-67
2022/01/02 06:43:54;;;;;;;;;;;4.70;99.80;;;;;;5003937;28;20140;-68
2022/01/02 06:46:19;;;;;;;;;;;4.60;99.90;;;;;;5003291;28;19917;-67
2022/01/02 06:48:45;;;;;;;;;;;4.60;99.90;;;;;;5003930;28;19932;-68
2022/01/02 06:51:11;;;;;;;;;;;4.70;99.90;;;;;;5004729;28;19906;-67
2022/01/02 06:53:37;;;;;;;;;;;4.70;99.90;;;;;;5022504;23;19906;-64
2022/01/02 06:56:03;;;;;;;;;;;4.80;99.90;;;;;;4983722;28;19945;-66
2022/01/02 06:58:28;;;;;;;;;;;4.80;99.90;;;;;;4985340;28;19948;-66
2022/01/02 07:00:56;;;;;;;;;;;4.80;99.80;;;;;;4985423;28;19936;-64
2022/01/02 07:03:22;;;;;;;;;;;4.70;99.70;;;;;;4985109;28;19906;-64
2022/01/02 07:05:47;;;;;;;;;;;4.70;99.60;;;;;;4984656;28;19952;-65
2022/01/02 07:08:13;;;;;;;;;;;4.70;99.60;;;;;;4985163;28;19905;-65
2022/01/02 07:10:39;;;;;;;;;;;4.70;99.50;;;;;;4985179;28;19910;-66
2022/01/02 07:13:05;;;;;;;;;;;4.70;99.50;;;;;;4982087;28;19910;-73
2022/01/02 07:15:30;;;;;;;;;;;4.80;99.50;;;;;;4980613;28;19910;-64
2022/01/02 07:17:56;;;;;;;;;;;4.80;99.50;;;;;;4983243;28;20257;-63
2022/01/02 07:20:22;;;;;;;;;;;4.70;99.70;;;;;;4985035;28;19913;-63
2022/01/02 07:22:47;;;;;;;;;;;4.70;99.90;;;;;;4984609;28;19960;-64
2022/01/02 07:25:13;;;;;;;;;;;4.70;99.90;;;;;;4984494;28;19913;-64
2022/01/02 07:27:39;;;;;;;;;;;4.70;99.90;;;;;;4984746;28;20153;-64
2022/01/02 07:30:06;;;;;;;;;;;4.80;99.90;;;;;;4984924;28;19909;-64
2022/01/02 07:32:31;;;;;;;;;;;4.80;99.90;;;;;;4984591;28;19906;-65
2022/01/02 07:34:57;;;;;;;;;;;5.00;99.80;;;;;;4984452;28;19945;-64
2022/01/02 07:37:23;;;;;;;;;;;5.00;99.70;;;;;;4984431;28;19922;-63
2022/01/02 07:39:48;;;;;;;;;;;5.00;99.70;;;;;;4984377;28;19906;-65
2022/01/02 07:42:14;;;;;;;;;;;4.90;99.80;;;;;;4984211;28;19906;-65
2022/01/02 07:44:40;;;;;;;;;;;4.90;99.90;;;;;;4975328;28;20015;-65
2022/01/02 07:47:05;;;;;;;;;;;4.90;99.90;;;;;;4970830;28;19910;-65
2022/01/02 07:49:31;;;;;;;;;;;4.80;99.90;;;;;;4964748;28;19906;-64
2022/01/02 07:51:57;;;;;;;;;;;4.80;99.90;;;;;;4964907;28;20021;-64
2022/01/02 07:54:22;;;;;;;;;;;4.80;99.90;;;;;;4964716;28;19918;-64
2022/01/02 07:56:48;;;;;;;;;;;4.70;99.90;;;;;;4973683;28;19906;-64
2022/01/02 07:59:14;;;;;;;;;;;4.70;99.90;;;;;;4984187;28;20113;-64
2022/01/02 08:01:40;;;;;;;;;;;4.70;99.90;;;;;;4981138;28;19910;-65
2022/01/02 08:04:05;;;;;;;;;;;4.80;99.90;;;;;;4983736;28;19992;-64
2022/01/02 08:06:31;;;;;;;;;;;5.00;99.90;;;;;;4983847;28;20009;-65
2022/01/02 08:08:57;;;;;;;;;;;5.10;99.80;;;;;;4984080;28;19977;-65
2022/01/02 08:11:22;;;;;;;;;;;5.20;99.60;;;;;;4976167;28;19952;-64
2022/01/02 08:13:48;;;;;;;;;;;5.30;99.40;;;;;;4966084;28;19910;-63
2022/01/02 08:16:14;;;;;;;;;;;5.30;99.40;;;;;;4975243;28;19958;-64
2022/01/02 08:18:40;;;;;;;;;;;5.40;99.40;;;;;;4966396;28;19918;-63
2022/01/02 08:21:06;;;;;;;;;;;5.50;99.20;;;;;;4983802;28;19929;-64
2022/01/02 08:23:32;;;;;;;;;;;5.50;99.10;;;;;;4983908;28;19969;-66
2022/01/02 08:25:58;;;;;;;;;;;5.50;99.20;;;;;;4983443;28;19917;-63
2022/01/02 08:28:23;;;;;;;;;;;5.60;99.20;;;;;;4984044;28;19909;-65
2022/01/02 08:30:49;;;;;;;;;;;5.70;99.00;;;;;;4983366;28;19906;-64
2022/01/02 08:33:15;;;;;;;;;;;5.70;98.80;;;;;;4974018;28;19973;-65
2022/01/02 08:35:42;;;;;;;;;;;5.80;98.70;;;;;;4973445;28;19906;-68
2022/01/02 08:38:07;;;;;;;;;;;5.90;98.60;;;;;;4974853;28;19906;-62
2022/01/02 08:40:35;;;;;;;;;;;6.00;98.40;;;;;;4975544;28;19906;-65
2022/01/02 08:43:00;;;;;;;;;;;6.00;98.40;;;;;;4971283;28;19916;-64
2022/01/02 08:45:26;;;;;;;;;;;6.00;98.50;;;;;;4971302;28;19937;-65
2022/01/02 08:47:52;;;;;;;;;;;6.00;98.50;;;;;;4976287;28;19984;-70
2022/01/02 08:50:17;;;;;;;;;;;5.90;98.70;;;;;;4983365;28;20109;-69
2022/01/02 08:52:43;;;;;;;;;;;6.00;98.80;;;;;;4983471;28;19906;-74
2022/01/02 08:55:09;;;;;;;;;;;6.10;98.50;;;;;;4982082;28;20086;-78
2022/01/02 08:57:34;;;;;;;;;;;6.10;98.50;;;;;;4983170;28;19906;-64
2022/01/02 09:00:00;;;;;;;;;;;6.10;98.50;;;;;;4983581;28;19906;-64
2022/01/02 09:02:26;;;;;;;;;;;6.00;98.60;;;;;;4983309;28;19906;-65
2022/01/02 09:04:52;;;;;;;;;;;6.10;98.60;;;;;;4981595;28;20009;-66
2022/01/02 09:07:17;;;;;;;;;;;6.20;98.60;;;;;;4983433;28;19914;-63
2022/01/02 09:09:43;;;;;;;;;;;6.30;98.40;;;;;;4981629;28;19917;-67
2022/01/02 09:12:09;;;;;;;;;;;6.40;98.00;;;;;;4980319;28;20104;-67
2022/01/02 09:14:35;;;;;;;;;;;6.50;97.70;;;;;;4976367;28;20334;-70
2022/01/02 09:17:01;;;;;;;;;;;6.50;97.90;;;;;;4983468;28;20209;-70
2022/01/02 09:19:26;;;;;;;;;;;6.60;97.80;;;;;;4967757;28;19944;-69
2022/01/02 09:21:52;;;;;;;;;;;6.70;97.60;;;;;;4985023;28;20201;-69
2022/01/02 09:24:18;;;;;;;;;;;6.80;97.30;;;;;;4985719;28;19977;-70
2022/01/02 09:26:43;;;;;;;;;;;6.90;97.00;;;;;;4986231;28;19932;-69
2022/01/02 09:29:09;;;;;;;;;;;6.90;96.90;;;;;;4986548;28;20086;-70
2022/01/02 09:31:35;;;;;;;;;;;7.00;96.70;;;;;;4986928;28;19972;-70
2022/01/02 09:34:01;;;;;;;;;;;7.10;96.90;;;;;;4986641;28;19906;-69
2022/01/02 09:36:26;;;;;;;;;;;7.20;97.00;;;;;;4969155;28;19906;-71
2022/01/02 09:38:54;;;;;;;;;;;7.30;96.20;;;;;;4986049;28;19952;-71
2022/01/02 09:41:20;;;;;;;;;;;7.50;95.70;;;;;;4985526;28;19906;-74
2022/01/02 09:43:47;;;;;;;;;;;7.70;95.20;;;;;;4976951;28;19946;-72
2022/01/02 09:46:24;;;;;;;;;;;7.80;95.30;;;;;;4974022;28;19937;-72
2022/01/02 09:48:50;;;;;;;;;;;7.80;95.00;;;;;;4981470;28;19906;-73
2022/01/02 09:51:17;;;;;;;;;;;8.00;94.00;;;;;;4985540;28;19913;-75
2022/01/02 09:53:44;;;;;;;;;;;8.00;94.00;;;;;;4975111;28;19918;-74
2022/01/02 09:56:10;;;;;;;;;;;8.00;94.10;;;;;;4966822;28;19913;-73
2022/01/02 09:58:36;;;;;;;;;;;8.10;94.00;;;;;;4966212;29;19908;-72
2022/01/02 10:01:02;;;;;;;;;;;8.10;94.10;;;;;;4965959;28;20109;-67
2022/01/02 10:03:44;;;;;;;;;;;8.10;94.00;;;;;;4967192;28;19973;-73
2022/01/02 10:06:10;;;;;;;;;;;8.10;93.90;;;;;;4965446;28;20259;-68
2022/01/02 10:08:36;;;;;;;;;;;8.10;93.70;;;;;;4965981;28;19913;-67
2022/01/02 10:11:04;;;;;;;;;;;8.10;93.80;;;;;;4966625;28;19929;-70
2022/01/02 10:13:42;;;;;;;;;;;8.10;93.90;;;;;;4975374;28;19952;-69
2022/01/02 10:16:26;;;;;;;;;;;8.00;93.90;;;;;;4979460;28;20369;-71
2022/01/02 10:18:53;;;;;;;;;;;8.00;94.20;;;;;;4980722;28;19980;-66
2022/01/02 10:21:37;;;;;;;;;;;8.00;94.00;;;;;;4985225;28;20219;-66
2022/01/02 10:24:13;;;;;;;;;;;8.10;94.00;;;;;;4985609;28;20305;-66
2022/01/02 10:26:40;;;;;;;;;;;8.20;93.80;;;;;;4985553;28;19916;-67
2022/01/02 10:29:12;;;;;;;;;;;8.20;93.90;;;;;;4985159;28;19913;-66
2022/01/02 10:31:38;;;;;;;;;;;8.20;93.80;;;;;;4983933;28;19969;-68
2022/01/02 10:34:04;;;;;;;;;;;8.30;93.80;;;;;;4985221;28;20193;-66
2022/01/02 10:36:40;;;;;;;;;;;8.30;94.00;;;;;;4984852;28;19906;-69
2022/01/02 10:39:13;;;;;;;;;;;8.30;94.20;;;;;;4984704;28;20101;-69
2022/01/02 10:41:41;;;;;;;;;;;8.40;94.10;;;;;;4985333;28;19906;-65
2022/01/02 10:44:22;;;;;;;;;;;8.60;93.50;;;;;;4984138;28;19914;-66
2022/01/02 10:47:06;;;;;;;;;;;8.60;93.60;;;;;;4978986;28;20098;-65
2022/01/02 10:49:59;;;;;;;;;;;8.60;93.40;;;;;;4976493;28;19933;-72
2022/01/02 10:52:35;;;;;;;;;;;8.70;93.20;;;;;;4984493;28;19906;-69
2022/01/02 10:55:05;;;;;;;;;;;8.80;93.10;;;;;;4984173;28;20196;-70
2022/01/02 10:57:32;;;;;;;;;;;9.00;93.10;;;;;;4985650;28;20149;-70
2022/01/02 10:59:58;;;;;;;;;;;9.10;92.80;;;;;;4983631;28;19906;-70
2022/01/02 11:02:24;;;;;;;;;;;9.00;92.90;;;;;;4985144;28;19913;-70
2022/01/02 11:04:59;;;;;;;;;;;9.00;92.80;;;;;;4983333;28;19905;-74
2022/01/02 11:07:25;;;;;;;;;;;9.00;93.00;;;;;;4967989;28;19922;-70
2022/01/02 11:09:55;;;;;;;;;;;8.90;92.60;;;;;;4983910;28;19906;-70
2022/01/02 11:12:21;;;;;;;;;;;8.80;92.90;;;;;;4984986;28;19991;-66
2022/01/02 11:14:48;;;;;;;;;;;8.70;92.70;;;;;;4980131;28;19910;-66
2022/01/02 11:17:14;;;;;;;;;;;8.70;92.80;;;;;;4979975;28;19910;-75
2022/01/02 11:19:40;;;;;;;;;;;8.70;92.90;;;;;;4980485;28;19914;-68
2022/01/02 11:22:12;;;;;;;;;;;8.60;92.80;;;;;;4978564;28;19932;-69
2022/01/02 11:24:43;;;;;;;;;;;8.70;93.30;;;;;;4983183;28;19924;-69
2022/01/02 11:27:27;;;;;;;;;;;8.80;92.90;;;;;;4983418;28;19973;-70
2022/01/02 11:29:53;;;;;;;;;;;8.80;93.00;;;;;;4977018;28;20464;-65
2022/01/02 11:32:26;;;;;;;;;;;8.80;93.00;;;;;;4970955;28;19910;-65
2022/01/02 11:34:52;;;;;;;;;;;8.90;93.10;;;;;;4974372;28;19906;-65
2022/01/02 11:37:19;;;;;;;;;;;8.90;93.10;;;;;;4965263;29;19914;-69
2022/01/02 11:39:59;;;;;;;;;;;8.90;92.80;;;;;;4966236;28;19917;-69
2022/01/02 11:42:34;;;;;;;;;;;9.00;92.70;;;;;;4983202;28;20020;-69
2022/01/02 11:45:00;;;;;;;;;;;9.00;92.70;;;;;;4983347;28;19906;-65
2022/01/02 11:47:39;;;;;;;;;;;9.00;92.80;;;;;;4991369;28;19925;-70
2022/01/02 11:50:25;;;;;;;;;;;8.90;92.90;;;;;;4976240;28;19918;-68
2022/01/02 11:53:09;;;;;;;;;;;8.90;93.00;;;;;;4982704;28;20104;-68
2022/01/02 11:55:35;;;;;;;;;;;8.80;93.20;;;;;;4982640;28;19909;-71
2022/01/02 11:58:00;;;;;;;;;;;8.70;93.30;;;;;;4963223;29;19945;-70
2022/01/02 12:00:43;;;;;;;;;;;8.70;93.50;;;;;;4947693;29;20160;-71
2022/01/02 12:03:42;;;;;;;;;;;8.70;93.30;;;;;;4976879;28;19910;-71
2022/01/02 12:06:33;;;;;;;;;;;8.70;93.40;;;;;;4982625;28;19949;-70
2022/01/02 12:08:59;;;;;;;;;;;8.70;93.50;;;;;;4983276;28;19909;-72
2022/01/02 12:11:30;;;;;;;;;;;8.60;93.90;;;;;;4982759;28;19937;-64
2022/01/02 12:14:29;;;;;;;;;;;8.70;93.80;;;;;;4984210;28;19906;-65
2022/01/02 12:16:58;;;;;;;;;;;8.70;93.60;;;;;;4981941;28;20212;-65
2022/01/02 12:19:25;;;;;;;;;;;8.70;93.60;;;;;;4973490;28;20231;-63
2022/01/02 12:22:13;;;;;;;;;;;8.70;93.60;;;;;;4981210;28;20124;-64
2022/01/02 12:24:39;;;;;;;;;;;8.70;93.60;;;;;;4966067;28;20267;-64
2022/01/02 12:27:09;;;;;;;;;;;8.70;93.30;;;;;;4964302;28;19918;-65
2022/01/02 12:29:34;;;;;;;;;;;8.80;93.30;;;;;;4963683;29;19957;-65
2022/01/02 12:32:00;;;;;;;;;;;8.80;93.20;;;;;;4964455;28;19906;-65
2022/01/02 12:34:26;;;;;;;;;;;8.70;93.40;;;;;;4964956;28;20149;-64
2022/01/02 12:36:52;;;;;;;;;;;8.70;93.50;;;;;;4988411;28;19957;-65
2022/01/02 12:39:37;;;;;;;;;;;8.70;93.40;;;;;;4980296;28;19911;-65
2022/01/02 12:42:08;;;;;;;;;;;8.70;93.20;;;;;;4975410;28;19954;-70
2022/01/02 12:44:35;;;;;;;;;;;8.70;93.30;;;;;;4971116;28;19921;-71
2022/01/02 12:47:05;;;;;;;;;;;8.70;93.50;;;;;;5018876;28;19932;-71
2022/01/02 12:49:35;;;;;;;;;;;8.70;93.50;;;;;;4978330;28;19928;-70
2022/01/02 12:52:08;;;;;;;;;;;8.70;93.30;;;;;;4986657;28;20220;-73
2022/01/02 12:54:35;;;;;;;;;;;8.70;93.30;;;;;;4966471;28;20102;-69
2022/01/02 12:57:11;;;;;;;;;;;8.80;93.10;;;;;;4966787;29;19985;-68
2022/01/02 12:59:38;;;;;;;;;;;8.80;93.00;;;;;;4967795;28;19945;-70
2022/01/02 13:02:05;;;;;;;;;;;8.80;93.00;;;;;;4967738;28;20177;-68
2022/01/02 13:04:33;;;;;;;;;;;8.80;93.00;;;;;;4967027;28;20252;-68
2022/01/02 13:07:00;;;;;;;;;;;8.70;93.00;;;;;;4966626;28;20061;-69
2022/01/02 13:09:28;;;;;;;;;;;8.80;93.00;;;;;;4967494;28;19934;-71
2022/01/02 13:11:55;;;;;;;;;;;8.80;92.90;;;;;;4973869;28;19973;-69
2022/01/02 13:14:35;;;;;;;;;;;8.80;92.90;;;;;;4986716;28;20220;-69
2022/01/02 13:17:01;;;;;;;;;;;8.80;92.80;;;;;;4986862;28;19906;-72
2022/01/02 13:19:28;;;;;;;;;;;8.80;92.80;;;;;;5011202;28;20273;-63
2022/01/02 13:21:54;;;;;;;;;;;8.80;92.80;;;;;;4983156;28;19934;-63
2022/01/02 13:24:30;;;;;;;;;;;8.90;92.80;;;;;;4984936;28;20105;-63
2022/01/02 13:26:56;;;;;;;;;;;8.90;92.80;;;;;;4987030;28;19910;-63
2022/01/02 13:29:23;;;;;;;;;;;8.80;92.90;;;;;;4986644;28;19905;-63
2022/01/02 13:31:55;;;;;;;;;;;8.80;93.00;;;;;;4986640;28;19944;-62
2022/01/02 13:34:24;;;;;;;;;;;8.80;93.00;;;;;;4986590;28;19905;-62
2022/01/02 13:37:00;;;;;;;;;;;8.80;93.00;;;;;;4986524;28;20239;-63
2022/01/02 13:39:41;;;;;;;;;;;8.80;93.10;;;;;;4985152;28;19910;-66
2022/01/02 13:42:07;;;;;;;;;;;8.80;93.20;;;;;;4986743;28;19969;-73
2022/01/02 13:44:40;;;;;;;;;;;8.80;93.10;;;;;;4985380;28;19906;-70
2022/01/02 13:47:06;;;;;;;;;;;8.80;93.20;;;;;;4986700;28;19910;-68
2022/01/02 13:50:04;;;;;;;;;;;8.90;93.10;;;;;;4984293;28;19926;-70
2022/01/02 13:52:30;;;;;;;;;;;8.90;93.00;;;;;;4967024;28;19914;-69
2022/01/02 13:55:09;;;;;;;;;;;9.00;92.80;;;;;;4985813;28;19972;-71
2022/01/02 13:57:34;;;;;;;;;;;9.10;92.50;;;;;;4986615;28;19906;-72
2022/01/02 14:00:16;;;;;;;;;;;9.20;92.30;;;;;;4968534;28;20082;-69
2022/01/02 14:02:42;;;;;;;;;;;9.20;92.20;;;;;;4986226;28;19906;-66
2022/01/02 14:05:08;;;;;;;;;;;9.30;92.20;;;;;;4984963;28;19913;-70
2022/01/02 14:07:35;;;;;;;;;;;9.20;92.20;;;;;;4985577;28;20165;-68
2022/01/02 14:10:03;;;;;;;;;;;9.30;92.20;;;;;;4986074;28;20202;-63
2022/01/02 14:12:33;;;;;;;;;;;9.30;92.30;;;;;;4983049;28;19938;-63
2022/01/02 14:15:07;;;;;;;;;;;9.30;92.20;;;;;;4984660;28;19913;-64
2022/01/02 14:17:36;;;;;;;;;;;9.40;92.10;;;;;;4986118;28;19918;-65
2022/01/02 14:20:04;;;;;;;;;;;9.40;91.80;;;;;;4985904;28;19906;-64
2022/01/02 14:22:33;;;;;;;;;;;9.40;91.80;;;;;;4985625;28;19913;-64
2022/01/02 14:24:58;;;;;;;;;;;9.40;91.80;;;;;;4985458;28;19928;-64
2022/01/02 14:27:26;;;;;;;;;;;9.40;91.80;;;;;;4985693;28;19949;-63
2022/01/02 14:29:52;;;;;;;;;;;9.40;91.90;;;;;;4985372;28;19906;-69
2022/01/02 14:32:18;;;;;;;;;;;9.40;91.80;;;;;;4984470;28;19928;-68
2022/01/02 14:34:44;;;;;;;;;;;9.40;91.80;;;;;;4984984;28;19906;-69
2022/01/02 14:37:10;;;;;;;;;;;9.40;91.80;;;;;;4984655;28;19910;-68
2022/01/02 14:39:36;;;;;;;;;;;9.40;91.90;;;;;;4983201;28;19945;-68